sensor_id;sensor_type;location;lat;lon;timestamp;P1;durP1;ratioP1;P2;durP2;ratioP2
75847;SDS011;65750;47.540;19.090;2023-02-16T00:01:00;17.35;;;11.15;;
75847;SDS011;65750;47.540;19.090;2023-02-16T00:03:29;16.67;;;10.60;;
75847;SDS011;65750;47.540;19.090;2023-02-16T00:05:56;14.93;;;10.63;;
75847;SDS011;65750;47.540;19.090;2023-02-16T00:08:24;14.95;;;10.48;;
75847;SDS011;65750;47.540;19.090;2023-02-16T00:10:52;16.15;;;10.80;;
75847;SDS011;65750;47.540;19.090;2023-02-16T00:13:36;16.40;;;10.18;;
75847;SDS011;65750;47.540;19.090;2023-02-16T00:16:13;15.13;;;10.13;;
75847;SDS011;65750;47.540;19.090;2023-02-16T00:18:41;16.67;;;11.20;;
75847;SDS011;65750;47.540;19.090;2023-02-16T00:21:08;16.12;;;10.65;;
75847;SDS011;65750;47.540;19.090;2023-02-16T00:23:37;15.93;;;10.88;;
75847;SDS011;65750;47.540;19.090;2023-02-16T00:26:04;16.12;;;10.57;;
75847;SDS011;65750;47.540;19.090;2023-02-16T00:28:32;16.62;;;10.60;;
75847;SDS011;65750;47.540;19.090;2023-02-16T00:31:00;14.83;;;10.17;;
75847;SDS011;65750;47.540;19.090;2023-02-16T00:33:27;16.05;;;10.60;;
75847;SDS011;65750;47.540;19.090;2023-02-16T00:35:55;16.23;;;11.10;;
75847;SDS011;65750;47.540;19.090;2023-02-16T00:38:22;16.65;;;10.20;;
75847;SDS011;65750;47.540;19.090;2023-02-16T00:40:51;15.43;;;10.45;;
75847;SDS011;65750;47.540;19.090;2023-02-16T00:43:21;17.30;;;11.30;;
75847;SDS011;65750;47.540;19.090;2023-02-16T00:45:50;17.23;;;10.98;;
75847;SDS011;65750;47.540;19.090;2023-02-16T00:48:18;18.05;;;11.30;;
75847;SDS011;65750;47.540;19.090;2023-02-16T00:50:45;16.40;;;10.93;;
75847;SDS011;65750;47.540;19.090;2023-02-16T00:53:16;15.27;;;10.30;;
75847;SDS011;65750;47.540;19.090;2023-02-16T00:55:43;17.37;;;11.40;;
75847;SDS011;65750;47.540;19.090;2023-02-16T00:58:14;16.58;;;10.93;;
75847;SDS011;65750;47.540;19.090;2023-02-16T01:00:45;15.43;;;10.40;;
75847;SDS011;65750;47.540;19.090;2023-02-16T01:03:14;16.08;;;11.32;;
75847;SDS011;65750;47.540;19.090;2023-02-16T01:05:42;15.80;;;10.63;;
75847;SDS011;65750;47.540;19.090;2023-02-16T01:08:10;16.17;;;11.20;;
75847;SDS011;65750;47.540;19.090;2023-02-16T01:10:55;16.83;;;10.88;;
75847;SDS011;65750;47.540;19.090;2023-02-16T01:13:43;15.85;;;11.77;;
75847;SDS011;65750;47.540;19.090;2023-02-16T01:16:12;16.58;;;10.95;;
75847;SDS011;65750;47.540;19.090;2023-02-16T01:18:41;16.37;;;11.23;;
75847;SDS011;65750;47.540;19.090;2023-02-16T01:21:08;16.67;;;11.13;;
75847;SDS011;65750;47.540;19.090;2023-02-16T01:23:35;15.40;;;10.75;;
75847;SDS011;65750;47.540;19.090;2023-02-16T01:26:03;16.25;;;11.00;;
75847;SDS011;65750;47.540;19.090;2023-02-16T01:28:32;15.27;;;10.70;;
75847;SDS011;65750;47.540;19.090;2023-02-16T01:31:02;15.18;;;11.02;;
75847;SDS011;65750;47.540;19.090;2023-02-16T01:33:30;16.80;;;11.00;;
75847;SDS011;65750;47.540;19.090;2023-02-16T01:35:58;18.17;;;11.48;;
75847;SDS011;65750;47.540;19.090;2023-02-16T01:38:26;17.17;;;11.27;;
75847;SDS011;65750;47.540;19.090;2023-02-16T01:40:56;17.02;;;11.75;;
75847;SDS011;65750;47.540;19.090;2023-02-16T01:43:29;17.40;;;11.30;;
75847;SDS011;65750;47.540;19.090;2023-02-16T01:45:58;17.00;;;10.97;;
75847;SDS011;65750;47.540;19.090;2023-02-16T01:48:31;19.35;;;11.40;;
75847;SDS011;65750;47.540;19.090;2023-02-16T01:51:01;16.30;;;11.48;;
75847;SDS011;65750;47.540;19.090;2023-02-16T01:53:32;17.12;;;11.68;;
75847;SDS011;65750;47.540;19.090;2023-02-16T01:56:03;17.05;;;11.35;;
75847;SDS011;65750;47.540;19.090;2023-02-16T01:58:37;15.87;;;11.60;;
75847;SDS011;65750;47.540;19.090;2023-02-16T02:01:31;16.15;;;11.25;;
75847;SDS011;65750;47.540;19.090;2023-02-16T02:04:08;16.25;;;11.25;;
75847;SDS011;65750;47.540;19.090;2023-02-16T02:07:09;15.82;;;11.25;;
75847;SDS011;65750;47.540;19.090;2023-02-16T02:09:41;16.60;;;11.48;;
75847;SDS011;65750;47.540;19.090;2023-02-16T02:12:13;16.67;;;11.43;;
75847;SDS011;65750;47.540;19.090;2023-02-16T02:14:46;15.73;;;11.25;;
75847;SDS011;65750;47.540;19.090;2023-02-16T02:17:17;18.27;;;11.18;;
75847;SDS011;65750;47.540;19.090;2023-02-16T02:19:47;16.55;;;11.15;;
75847;SDS011;65750;47.540;19.090;2023-02-16T02:22:27;18.17;;;11.43;;
75847;SDS011;65750;47.540;19.090;2023-02-16T02:25:34;16.80;;;11.17;;
75847;SDS011;65750;47.540;19.090;2023-02-16T02:28:27;15.27;;;10.82;;
75847;SDS011;65750;47.540;19.090;2023-02-16T02:30:58;19.60;;;11.45;;
75847;SDS011;65750;47.540;19.090;2023-02-16T02:33:36;15.98;;;10.77;;
75847;SDS011;65750;47.540;19.090;2023-02-16T02:36:14;16.55;;;11.63;;
75847;SDS011;65750;47.540;19.090;2023-02-16T02:38:53;15.97;;;11.37;;
75847;SDS011;65750;47.540;19.090;2023-02-16T02:41:26;15.63;;;10.90;;
75847;SDS011;65750;47.540;19.090;2023-02-16T02:44:19;17.48;;;11.68;;
75847;SDS011;65750;47.540;19.090;2023-02-16T02:46:48;17.85;;;11.85;;
75847;SDS011;65750;47.540;19.090;2023-02-16T02:49:17;18.83;;;12.37;;
75847;SDS011;65750;47.540;19.090;2023-02-16T02:51:44;16.07;;;11.30;;
75847;SDS011;65750;47.540;19.090;2023-02-16T02:54:13;17.52;;;11.43;;
75847;SDS011;65750;47.540;19.090;2023-02-16T02:57:01;17.55;;;11.98;;
75847;SDS011;65750;47.540;19.090;2023-02-16T02:59:50;18.33;;;11.68;;
75847;SDS011;65750;47.540;19.090;2023-02-16T03:02:37;17.45;;;11.88;;
75847;SDS011;65750;47.540;19.090;2023-02-16T03:05:05;15.27;;;10.83;;
75847;SDS011;65750;47.540;19.090;2023-02-16T03:07:35;17.23;;;11.80;;
75847;SDS011;65750;47.540;19.090;2023-02-16T03:10:12;17.60;;;12.00;;
75847;SDS011;65750;47.540;19.090;2023-02-16T03:12:57;16.30;;;11.25;;
75847;SDS011;65750;47.540;19.090;2023-02-16T03:15:28;17.60;;;11.98;;
75847;SDS011;65750;47.540;19.090;2023-02-16T03:17:56;16.47;;;11.47;;
75847;SDS011;65750;47.540;19.090;2023-02-16T03:20:41;16.60;;;11.48;;
75847;SDS011;65750;47.540;19.090;2023-02-16T03:23:27;16.25;;;11.05;;
75847;SDS011;65750;47.540;19.090;2023-02-16T03:26:12;16.05;;;11.35;;
75847;SDS011;65750;47.540;19.090;2023-02-16T03:28:58;16.23;;;11.48;;
75847;SDS011;65750;47.540;19.090;2023-02-16T03:31:44;16.63;;;11.60;;
75847;SDS011;65750;47.540;19.090;2023-02-16T03:34:11;17.48;;;11.48;;
75847;SDS011;65750;47.540;19.090;2023-02-16T03:36:39;15.95;;;11.18;;
75847;SDS011;65750;47.540;19.090;2023-02-16T03:39:07;16.45;;;11.48;;
75847;SDS011;65750;47.540;19.090;2023-02-16T03:41:37;17.60;;;11.65;;
75847;SDS011;65750;47.540;19.090;2023-02-16T03:44:05;15.80;;;11.40;;
75847;SDS011;65750;47.540;19.090;2023-02-16T03:46:32;15.63;;;10.93;;
75847;SDS011;65750;47.540;19.090;2023-02-16T03:49:01;19.02;;;12.25;;
75847;SDS011;65750;47.540;19.090;2023-02-16T03:51:29;16.98;;;11.93;;
75847;SDS011;65750;47.540;19.090;2023-02-16T03:53:56;17.75;;;12.23;;
75847;SDS011;65750;47.540;19.090;2023-02-16T03:56:23;17.43;;;11.47;;
75847;SDS011;65750;47.540;19.090;2023-02-16T03:58:50;16.75;;;11.80;;
75847;SDS011;65750;47.540;19.090;2023-02-16T04:01:17;17.37;;;12.07;;
75847;SDS011;65750;47.540;19.090;2023-02-16T04:03:45;15.55;;;11.15;;
75847;SDS011;65750;47.540;19.090;2023-02-16T04:06:14;16.40;;;11.35;;
75847;SDS011;65750;47.540;19.090;2023-02-16T04:08:41;16.03;;;11.33;;
75847;SDS011;65750;47.540;19.090;2023-02-16T04:11:08;16.92;;;11.95;;
75847;SDS011;65750;47.540;19.090;2023-02-16T04:13:49;15.65;;;11.32;;
75847;SDS011;65750;47.540;19.090;2023-02-16T04:16:16;17.40;;;11.82;;
75847;SDS011;65750;47.540;19.090;2023-02-16T04:18:43;15.82;;;11.18;;
75847;SDS011;65750;47.540;19.090;2023-02-16T04:21:10;16.30;;;11.17;;
75847;SDS011;65750;47.540;19.090;2023-02-16T04:23:39;16.55;;;11.48;;
75847;SDS011;65750;47.540;19.090;2023-02-16T04:26:06;16.17;;;11.12;;
75847;SDS011;65750;47.540;19.090;2023-02-16T04:28:33;16.48;;;11.57;;
75847;SDS011;65750;47.540;19.090;2023-02-16T04:31:01;16.02;;;11.60;;
75847;SDS011;65750;47.540;19.090;2023-02-16T04:33:28;16.33;;;11.47;;
75847;SDS011;65750;47.540;19.090;2023-02-16T04:35:55;16.95;;;11.32;;
75847;SDS011;65750;47.540;19.090;2023-02-16T04:38:22;16.08;;;11.77;;
75847;SDS011;65750;47.540;19.090;2023-02-16T04:40:52;16.73;;;12.05;;
75847;SDS011;65750;47.540;19.090;2023-02-16T04:43:19;17.35;;;11.93;;
75847;SDS011;65750;47.540;19.090;2023-02-16T04:45:46;16.17;;;11.30;;
75847;SDS011;65750;47.540;19.090;2023-02-16T04:48:13;17.80;;;12.15;;
75847;SDS011;65750;47.540;19.090;2023-02-16T04:50:41;16.70;;;11.68;;
75847;SDS011;65750;47.540;19.090;2023-02-16T04:53:08;17.67;;;11.65;;
75847;SDS011;65750;47.540;19.090;2023-02-16T04:55:35;16.77;;;11.18;;
75847;SDS011;65750;47.540;19.090;2023-02-16T04:58:04;16.63;;;11.30;;
75847;SDS011;65750;47.540;19.090;2023-02-16T05:00:31;16.15;;;11.45;;
75847;SDS011;65750;47.540;19.090;2023-02-16T05:02:58;16.37;;;11.25;;
75847;SDS011;65750;47.540;19.090;2023-02-16T05:05:25;16.75;;;11.65;;
75847;SDS011;65750;47.540;19.090;2023-02-16T05:07:52;17.95;;;12.20;;
75847;SDS011;65750;47.540;19.090;2023-02-16T05:10:19;15.73;;;11.50;;
75847;SDS011;65750;47.540;19.090;2023-02-16T05:12:47;16.42;;;11.73;;
75847;SDS011;65750;47.540;19.090;2023-02-16T05:15:33;17.58;;;11.93;;
75847;SDS011;65750;47.540;19.090;2023-02-16T05:18:00;15.70;;;11.05;;
75847;SDS011;65750;47.540;19.090;2023-02-16T05:20:27;15.80;;;11.30;;
75847;SDS011;65750;47.540;19.090;2023-02-16T05:23:09;17.00;;;12.07;;
75847;SDS011;65750;47.540;19.090;2023-02-16T05:25:36;17.25;;;12.25;;
75847;SDS011;65750;47.540;19.090;2023-02-16T05:28:04;15.85;;;11.43;;
75847;SDS011;65750;47.540;19.090;2023-02-16T05:30:31;18.30;;;12.05;;
75847;SDS011;65750;47.540;19.090;2023-02-16T05:33:00;18.05;;;12.00;;
75847;SDS011;65750;47.540;19.090;2023-02-16T05:35:27;16.10;;;11.10;;
75847;SDS011;65750;47.540;19.090;2023-02-16T05:37:54;15.57;;;11.40;;
75847;SDS011;65750;47.540;19.090;2023-02-16T05:40:21;17.55;;;12.00;;
75847;SDS011;65750;47.540;19.090;2023-02-16T05:42:51;17.83;;;11.90;;
75847;SDS011;65750;47.540;19.090;2023-02-16T05:45:18;15.95;;;11.25;;
75847;SDS011;65750;47.540;19.090;2023-02-16T05:47:45;17.33;;;12.40;;
75847;SDS011;65750;47.540;19.090;2023-02-16T05:50:14;16.73;;;11.98;;
75847;SDS011;65750;47.540;19.090;2023-02-16T05:52:41;16.85;;;11.60;;
75847;SDS011;65750;47.540;19.090;2023-02-16T05:55:08;16.42;;;11.70;;
75847;SDS011;65750;47.540;19.090;2023-02-16T05:57:35;17.42;;;11.48;;
75847;SDS011;65750;47.540;19.090;2023-02-16T06:00:03;18.77;;;12.50;;
75847;SDS011;65750;47.540;19.090;2023-02-16T06:02:31;17.42;;;11.77;;
75847;SDS011;65750;47.540;19.090;2023-02-16T06:04:58;17.83;;;11.85;;
75847;SDS011;65750;47.540;19.090;2023-02-16T06:07:27;18.20;;;12.32;;
75847;SDS011;65750;47.540;19.090;2023-02-16T06:09:54;17.83;;;12.32;;
75847;SDS011;65750;47.540;19.090;2023-02-16T06:12:21;16.30;;;11.37;;
75847;SDS011;65750;47.540;19.090;2023-02-16T06:14:48;16.77;;;11.60;;
75847;SDS011;65750;47.540;19.090;2023-02-16T06:17:15;16.75;;;11.15;;
75847;SDS011;65750;47.540;19.090;2023-02-16T06:19:43;17.48;;;11.93;;
75847;SDS011;65750;47.540;19.090;2023-02-16T06:22:10;19.52;;;11.93;;
75847;SDS011;65750;47.540;19.090;2023-02-16T06:24:38;18.70;;;11.97;;
75847;SDS011;65750;47.540;19.090;2023-02-16T06:27:05;17.12;;;12.10;;
75847;SDS011;65750;47.540;19.090;2023-02-16T06:29:33;18.33;;;12.57;;
75847;SDS011;65750;47.540;19.090;2023-02-16T06:32:00;17.58;;;12.40;;
75847;SDS011;65750;47.540;19.090;2023-02-16T06:34:27;17.77;;;12.20;;
75847;SDS011;65750;47.540;19.090;2023-02-16T06:36:54;19.70;;;12.93;;
75847;SDS011;65750;47.540;19.090;2023-02-16T06:39:21;20.10;;;12.98;;
75847;SDS011;65750;47.540;19.090;2023-02-16T06:41:50;18.40;;;13.50;;
75847;SDS011;65750;47.540;19.090;2023-02-16T06:44:17;20.25;;;14.25;;
75847;SDS011;65750;47.540;19.090;2023-02-16T06:46:45;26.17;;;14.45;;
75847;SDS011;65750;47.540;19.090;2023-02-16T06:49:13;28.33;;;14.73;;
75847;SDS011;65750;47.540;19.090;2023-02-16T06:51:42;23.95;;;14.38;;
75847;SDS011;65750;47.540;19.090;2023-02-16T06:54:10;24.45;;;14.27;;
75847;SDS011;65750;47.540;19.090;2023-02-16T06:56:37;21.40;;;14.38;;
75847;SDS011;65750;47.540;19.090;2023-02-16T06:59:06;23.85;;;13.88;;
75847;SDS011;65750;47.540;19.090;2023-02-16T07:01:33;26.87;;;14.43;;
75847;SDS011;65750;47.540;19.090;2023-02-16T07:04:00;24.45;;;14.90;;
75847;SDS011;65750;47.540;19.090;2023-02-16T07:06:40;26.30;;;17.77;;
75847;SDS011;65750;47.540;19.090;2023-02-16T07:09:07;27.73;;;17.35;;
75847;SDS011;65750;47.540;19.090;2023-02-16T07:11:34;24.58;;;16.80;;
75847;SDS011;65750;47.540;19.090;2023-02-16T07:14:01;28.07;;;16.73;;
75847;SDS011;65750;47.540;19.090;2023-02-16T07:16:30;23.05;;;16.27;;
75847;SDS011;65750;47.540;19.090;2023-02-16T07:18:57;25.80;;;16.73;;
75847;SDS011;65750;47.540;19.090;2023-02-16T07:21:25;25.50;;;16.33;;
75847;SDS011;65750;47.540;19.090;2023-02-16T07:23:52;27.42;;;16.75;;
75847;SDS011;65750;47.540;19.090;2023-02-16T07:26:19;24.97;;;16.10;;
75847;SDS011;65750;47.540;19.090;2023-02-16T07:28:47;26.40;;;16.85;;
75847;SDS011;65750;47.540;19.090;2023-02-16T07:31:14;27.30;;;17.52;;
75847;SDS011;65750;47.540;19.090;2023-02-16T07:33:43;30.67;;;17.48;;
75847;SDS011;65750;47.540;19.090;2023-02-16T07:36:11;46.45;;;22.02;;
75847;SDS011;65750;47.540;19.090;2023-02-16T07:38:39;51.40;;;22.17;;
75847;SDS011;65750;47.540;19.090;2023-02-16T07:41:07;42.80;;;20.10;;
75847;SDS011;65750;47.540;19.090;2023-02-16T07:43:34;39.50;;;20.23;;
75847;SDS011;65750;47.540;19.090;2023-02-16T07:46:02;42.90;;;19.20;;
75847;SDS011;65750;47.540;19.090;2023-02-16T07:48:29;42.70;;;20.10;;
75847;SDS011;65750;47.540;19.090;2023-02-16T07:50:58;41.97;;;19.90;;
75847;SDS011;65750;47.540;19.090;2023-02-16T07:53:26;39.47;;;19.75;;
75847;SDS011;65750;47.540;19.090;2023-02-16T07:55:53;40.75;;;19.67;;
75847;SDS011;65750;47.540;19.090;2023-02-16T07:58:21;41.03;;;20.37;;
75847;SDS011;65750;47.540;19.090;2023-02-16T08:00:54;40.60;;;19.87;;
75847;SDS011;65750;47.540;19.090;2023-02-16T08:03:22;36.30;;;19.60;;
75847;SDS011;65750;47.540;19.090;2023-02-16T08:05:49;35.85;;;18.83;;
75847;SDS011;65750;47.540;19.090;2023-02-16T08:08:18;34.92;;;19.40;;
75847;SDS011;65750;47.540;19.090;2023-02-16T08:10:45;35.50;;;19.20;;
75847;SDS011;65750;47.540;19.090;2023-02-16T08:13:12;38.22;;;18.12;;
75847;SDS011;65750;47.540;19.090;2023-02-16T08:15:41;37.80;;;18.80;;
75847;SDS011;65750;47.540;19.090;2023-02-16T08:18:09;35.25;;;19.10;;
75847;SDS011;65750;47.540;19.090;2023-02-16T08:20:36;35.28;;;19.12;;
75847;SDS011;65750;47.540;19.090;2023-02-16T08:23:03;29.98;;;17.83;;
75847;SDS011;65750;47.540;19.090;2023-02-16T08:25:33;34.88;;;19.40;;
75847;SDS011;65750;47.540;19.090;2023-02-16T08:28:01;37.67;;;18.87;;
75847;SDS011;65750;47.540;19.090;2023-02-16T08:30:28;32.20;;;18.35;;
75847;SDS011;65750;47.540;19.090;2023-02-16T08:32:55;35.20;;;19.73;;
75847;SDS011;65750;47.540;19.090;2023-02-16T08:35:25;33.53;;;19.20;;
75847;SDS011;65750;47.540;19.090;2023-02-16T08:37:53;33.75;;;18.77;;
75847;SDS011;65750;47.540;19.090;2023-02-16T08:40:23;32.27;;;18.43;;
75847;SDS011;65750;47.540;19.090;2023-02-16T08:42:52;33.10;;;19.48;;
75847;SDS011;65750;47.540;19.090;2023-02-16T08:45:20;35.80;;;19.98;;
75847;SDS011;65750;47.540;19.090;2023-02-16T08:47:47;34.10;;;19.60;;
75847;SDS011;65750;47.540;19.090;2023-02-16T08:50:17;32.42;;;18.70;;
75847;SDS011;65750;47.540;19.090;2023-02-16T08:52:44;29.57;;;18.60;;
75847;SDS011;65750;47.540;19.090;2023-02-16T08:55:13;32.45;;;18.35;;
75847;SDS011;65750;47.540;19.090;2023-02-16T08:57:41;34.38;;;19.12;;
75847;SDS011;65750;47.540;19.090;2023-02-16T09:00:11;33.10;;;19.17;;
75847;SDS011;65750;47.540;19.090;2023-02-16T09:02:57;31.10;;;18.58;;
75847;SDS011;65750;47.540;19.090;2023-02-16T09:05:24;32.83;;;18.47;;
75847;SDS011;65750;47.540;19.090;2023-02-16T09:07:52;31.55;;;19.35;;
75847;SDS011;65750;47.540;19.090;2023-02-16T09:10:19;33.90;;;19.83;;
75847;SDS011;65750;47.540;19.090;2023-02-16T09:12:47;32.50;;;19.17;;
75847;SDS011;65750;47.540;19.090;2023-02-16T09:15:16;32.05;;;19.42;;
75847;SDS011;65750;47.540;19.090;2023-02-16T09:17:44;30.63;;;18.93;;
75847;SDS011;65750;47.540;19.090;2023-02-16T09:20:11;31.62;;;19.17;;
75847;SDS011;65750;47.540;19.090;2023-02-16T09:22:39;32.80;;;19.80;;
75847;SDS011;65750;47.540;19.090;2023-02-16T09:25:06;30.15;;;19.08;;
75847;SDS011;65750;47.540;19.090;2023-02-16T09:27:35;32.55;;;20.25;;
75847;SDS011;65750;47.540;19.090;2023-02-16T09:30:02;31.37;;;20.07;;
75847;SDS011;65750;47.540;19.090;2023-02-16T09:32:31;33.17;;;20.15;;
75847;SDS011;65750;47.540;19.090;2023-02-16T09:34:59;33.95;;;20.30;;
75847;SDS011;65750;47.540;19.090;2023-02-16T09:37:26;33.42;;;20.90;;
75847;SDS011;65750;47.540;19.090;2023-02-16T09:39:54;29.73;;;19.98;;
75847;SDS011;65750;47.540;19.090;2023-02-16T09:42:24;36.80;;;20.67;;
75847;SDS011;65750;47.540;19.090;2023-02-16T09:44:57;37.45;;;21.08;;
75847;SDS011;65750;47.540;19.090;2023-02-16T09:47:30;37.58;;;19.98;;
75847;SDS011;65750;47.540;19.090;2023-02-16T09:50:01;30.25;;;20.10;;
75847;SDS011;65750;47.540;19.090;2023-02-16T09:52:34;34.20;;;20.33;;
75847;SDS011;65750;47.540;19.090;2023-02-16T09:55:04;34.50;;;21.27;;
75847;SDS011;65750;47.540;19.090;2023-02-16T09:57:37;39.60;;;21.50;;
75847;SDS011;65750;47.540;19.090;2023-02-16T10:00:11;34.53;;;20.35;;
75847;SDS011;65750;47.540;19.090;2023-02-16T10:02:49;32.97;;;20.25;;
75847;SDS011;65750;47.540;19.090;2023-02-16T10:05:19;32.33;;;20.15;;
75847;SDS011;65750;47.540;19.090;2023-02-16T10:07:57;30.17;;;19.80;;
75847;SDS011;65750;47.540;19.090;2023-02-16T10:10:32;30.62;;;19.00;;
75847;SDS011;65750;47.540;19.090;2023-02-16T10:13:03;32.00;;;19.87;;
75847;SDS011;65750;47.540;19.090;2023-02-16T10:15:33;31.90;;;20.37;;
75847;SDS011;65750;47.540;19.090;2023-02-16T10:18:07;35.88;;;20.25;;
75847;SDS011;65750;47.540;19.090;2023-02-16T10:20:43;33.40;;;19.20;;
75847;SDS011;65750;47.540;19.090;2023-02-16T10:23:16;30.83;;;19.02;;
75847;SDS011;65750;47.540;19.090;2023-02-16T10:25:53;34.33;;;19.75;;
75847;SDS011;65750;47.540;19.090;2023-02-16T10:28:27;28.10;;;18.73;;
75847;SDS011;65750;47.540;19.090;2023-02-16T10:31:00;30.70;;;19.15;;
75847;SDS011;65750;47.540;19.090;2023-02-16T10:33:35;31.20;;;19.33;;
75847;SDS011;65750;47.540;19.090;2023-02-16T10:36:12;28.48;;;19.05;;
75847;SDS011;65750;47.540;19.090;2023-02-16T10:38:44;35.10;;;20.35;;
75847;SDS011;65750;47.540;19.090;2023-02-16T10:41:22;30.83;;;19.17;;
75847;SDS011;65750;47.540;19.090;2023-02-16T10:43:55;31.45;;;19.42;;
75847;SDS011;65750;47.540;19.090;2023-02-16T10:46:24;30.37;;;18.90;;
75847;SDS011;65750;47.540;19.090;2023-02-16T10:48:55;34.08;;;18.73;;
75847;SDS011;65750;47.540;19.090;2023-02-16T10:51:26;30.05;;;18.17;;
75847;SDS011;65750;47.540;19.090;2023-02-16T10:53:58;35.13;;;19.30;;
75847;SDS011;65750;47.540;19.090;2023-02-16T10:59:15;33.87;;;19.30;;
75847;SDS011;65750;47.540;19.090;2023-02-16T11:01:44;31.83;;;20.80;;
75847;SDS011;65750;47.540;19.090;2023-02-16T11:04:30;41.97;;;27.52;;
75847;SDS011;65750;47.540;19.090;2023-02-16T11:07:03;51.88;;;33.70;;
75847;SDS011;65750;47.540;19.090;2023-02-16T11:09:32;52.83;;;30.80;;
75847;SDS011;65750;47.540;19.090;2023-02-16T11:12:00;44.40;;;27.40;;
75847;SDS011;65750;47.540;19.090;2023-02-16T11:14:29;45.65;;;28.83;;
75847;SDS011;65750;47.540;19.090;2023-02-16T11:17:03;40.65;;;25.75;;
75847;SDS011;65750;47.540;19.090;2023-02-16T11:19:34;37.83;;;24.65;;
75847;SDS011;65750;47.540;19.090;2023-02-16T11:22:02;40.22;;;24.95;;
75847;SDS011;65750;47.540;19.090;2023-02-16T11:24:30;37.30;;;23.70;;
75847;SDS011;65750;47.540;19.090;2023-02-16T11:26:58;35.67;;;23.02;;
75847;SDS011;65750;47.540;19.090;2023-02-16T11:29:27;33.70;;;22.48;;
75847;SDS011;65750;47.540;19.090;2023-02-16T11:31:54;34.33;;;22.90;;
75847;SDS011;65750;47.540;19.090;2023-02-16T11:34:25;35.17;;;23.73;;
75847;SDS011;65750;47.540;19.090;2023-02-16T11:37:01;34.33;;;22.93;;
75847;SDS011;65750;47.540;19.090;2023-02-16T11:39:32;32.40;;;21.48;;
75847;SDS011;65750;47.540;19.090;2023-02-16T11:42:03;35.58;;;21.65;;
75847;SDS011;65750;47.540;19.090;2023-02-16T11:44:32;35.90;;;21.90;;
75847;SDS011;65750;47.540;19.090;2023-02-16T11:47:01;36.40;;;22.10;;
75847;SDS011;65750;47.540;19.090;2023-02-16T11:49:31;34.37;;;22.17;;
75847;SDS011;65750;47.540;19.090;2023-02-16T11:52:01;33.67;;;20.50;;
75847;SDS011;65750;47.540;19.090;2023-02-16T11:54:46;30.37;;;19.70;;
75847;SDS011;65750;47.540;19.090;2023-02-16T11:57:14;30.75;;;21.00;;
75847;SDS011;65750;47.540;19.090;2023-02-16T11:59:49;29.67;;;19.92;;
75847;SDS011;65750;47.540;19.090;2023-02-16T12:02:23;28.90;;;19.57;;
75847;SDS011;65750;47.540;19.090;2023-02-16T12:05:20;29.45;;;19.55;;
75847;SDS011;65750;47.540;19.090;2023-02-16T12:07:54;28.87;;;18.48;;
75847;SDS011;65750;47.540;19.090;2023-02-16T12:10:38;27.70;;;18.60;;
75847;SDS011;65750;47.540;19.090;2023-02-16T12:13:13;30.90;;;18.20;;
75847;SDS011;65750;47.540;19.090;2023-02-16T12:15:47;28.80;;;18.87;;
75847;SDS011;65750;47.540;19.090;2023-02-16T12:18:21;30.35;;;19.05;;
75847;SDS011;65750;47.540;19.090;2023-02-16T12:20:54;28.75;;;18.20;;
75847;SDS011;65750;47.540;19.090;2023-02-16T12:23:30;27.92;;;17.98;;
75847;SDS011;65750;47.540;19.090;2023-02-16T12:26:05;25.60;;;17.40;;
75847;SDS011;65750;47.540;19.090;2023-02-16T12:28:43;27.57;;;17.80;;
75847;SDS011;65750;47.540;19.090;2023-02-16T12:31:17;26.20;;;17.48;;
75847;SDS011;65750;47.540;19.090;2023-02-16T12:33:55;26.92;;;17.55;;
75847;SDS011;65750;47.540;19.090;2023-02-16T12:39:23;28.40;;;17.48;;
75847;SDS011;65750;47.540;19.090;2023-02-16T12:41:56;27.60;;;16.97;;
75847;SDS011;65750;47.540;19.090;2023-02-16T12:44:41;25.92;;;16.50;;
75847;SDS011;65750;47.540;19.090;2023-02-16T12:47:12;24.55;;;16.52;;
75847;SDS011;65750;47.540;19.090;2023-02-16T12:49:45;24.08;;;17.08;;
75847;SDS011;65750;47.540;19.090;2023-02-16T12:52:21;24.00;;;17.00;;
75847;SDS011;65750;47.540;19.090;2023-02-16T12:54:54;26.00;;;16.77;;
75847;SDS011;65750;47.540;19.090;2023-02-16T12:57:24;24.42;;;16.30;;
75847;SDS011;65750;47.540;19.090;2023-02-16T12:59:53;25.75;;;17.10;;
75847;SDS011;65750;47.540;19.090;2023-02-16T13:02:26;24.42;;;16.35;;
75847;SDS011;65750;47.540;19.090;2023-02-16T13:04:58;27.25;;;16.40;;
75847;SDS011;65750;47.540;19.090;2023-02-16T13:07:34;25.63;;;16.00;;
75847;SDS011;65750;47.540;19.090;2023-02-16T13:10:13;26.83;;;16.12;;
75847;SDS011;65750;47.540;19.090;2023-02-16T13:12:46;25.77;;;16.52;;
75847;SDS011;65750;47.540;19.090;2023-02-16T13:15:16;24.65;;;15.57;;
75847;SDS011;65750;47.540;19.090;2023-02-16T13:17:47;24.58;;;16.27;;
75847;SDS011;65750;47.540;19.090;2023-02-16T13:20:16;23.67;;;16.17;;
75847;SDS011;65750;47.540;19.090;2023-02-16T13:23:06;25.02;;;16.95;;
75847;SDS011;65750;47.540;19.090;2023-02-16T13:29:13;22.92;;;15.20;;
75847;SDS011;65750;47.540;19.090;2023-02-16T13:31:57;26.67;;;16.02;;
75847;SDS011;65750;47.540;19.090;2023-02-16T13:34:41;22.30;;;15.33;;
75847;SDS011;65750;47.540;19.090;2023-02-16T13:37:22;25.15;;;15.82;;
75847;SDS011;65750;47.540;19.090;2023-02-16T13:40:00;23.90;;;16.05;;
75847;SDS011;65750;47.540;19.090;2023-02-16T13:42:49;23.90;;;15.63;;
75847;SDS011;65750;47.540;19.090;2023-02-16T13:45:24;25.95;;;16.25;;
75847;SDS011;65750;47.540;19.090;2023-02-16T13:47:53;24.37;;;16.10;;
75847;SDS011;65750;47.540;19.090;2023-02-16T13:50:26;25.80;;;15.63;;
75847;SDS011;65750;47.540;19.090;2023-02-16T13:52:56;23.95;;;15.25;;
75847;SDS011;65750;47.540;19.090;2023-02-16T13:55:26;23.17;;;14.63;;
75847;SDS011;65750;47.540;19.090;2023-02-16T13:58:04;24.50;;;14.65;;
75847;SDS011;65750;47.540;19.090;2023-02-16T14:00:34;21.27;;;13.93;;
75847;SDS011;65750;47.540;19.090;2023-02-16T14:03:09;22.77;;;14.02;;
75847;SDS011;65750;47.540;19.090;2023-02-16T14:05:38;26.83;;;15.02;;
75847;SDS011;65750;47.540;19.090;2023-02-16T14:08:11;23.73;;;13.77;;
75847;SDS011;65750;47.540;19.090;2023-02-16T14:13:45;21.23;;;14.00;;
75847;SDS011;65750;47.540;19.090;2023-02-16T14:18:59;21.02;;;14.10;;
75847;SDS011;65750;47.540;19.090;2023-02-16T14:21:31;22.23;;;14.27;;
75847;SDS011;65750;47.540;19.090;2023-02-16T14:24:03;19.58;;;13.40;;
75847;SDS011;65750;47.540;19.090;2023-02-16T14:26:32;20.40;;;13.50;;
75847;SDS011;65750;47.540;19.090;2023-02-16T14:29:19;21.15;;;12.85;;
75847;SDS011;65750;47.540;19.090;2023-02-16T14:31:49;19.02;;;12.88;;
75847;SDS011;65750;47.540;19.090;2023-02-16T14:34:22;21.00;;;13.20;;
75847;SDS011;65750;47.540;19.090;2023-02-16T14:37:09;19.17;;;12.90;;
75847;SDS011;65750;47.540;19.090;2023-02-16T14:39:54;20.30;;;13.40;;
75847;SDS011;65750;47.540;19.090;2023-02-16T14:42:25;19.10;;;12.85;;
75847;SDS011;65750;47.540;19.090;2023-02-16T14:45:09;18.25;;;12.90;;
75847;SDS011;65750;47.540;19.090;2023-02-16T14:47:50;20.20;;;13.10;;